createdAt,value
2017-11-24T00:01:13.947Z,12.64
2017-11-24T00:03:42.191Z,12.65
2017-11-24T00:06:11.208Z,12.54
2017-11-24T00:08:39.459Z,12.50
2017-11-24T00:11:07.715Z,12.43
2017-11-24T00:13:35.967Z,12.48
2017-11-24T00:16:04.210Z,12.46
2017-11-24T00:18:32.471Z,12.43
2017-11-24T00:21:00.723Z,12.33
2017-11-24T00:23:28.983Z,12.17
2017-11-24T00:25:57.237Z,12.02
2017-11-24T00:28:25.489Z,11.95
2017-11-24T00:30:54.524Z,11.92
2017-11-24T00:33:22.774Z,11.81
2017-11-24T00:35:51.785Z,11.85
2017-11-24T00:38:20.047Z,11.87
2017-11-24T00:40:49.060Z,11.83
2017-11-24T00:43:17.314Z,11.79
2017-11-24T00:45:46.323Z,11.77
2017-11-24T00:48:14.585Z,11.80
2017-11-24T00:50:43.599Z,11.71
2017-11-24T00:53:11.856Z,11.70
2017-11-24T00:55:40.111Z,11.63
2017-11-24T00:58:08.359Z,11.56
2017-11-24T01:00:36.608Z,11.74
2017-11-24T01:03:04.865Z,11.72
2017-11-24T01:05:33.103Z,11.62
2017-11-24T01:08:01.370Z,11.61
2017-11-24T01:10:29.615Z,11.61
2017-11-24T01:12:57.864Z,11.62
2017-11-24T01:15:26.112Z,11.59
2017-11-24T01:17:55.132Z,11.62
2017-11-24T01:20:23.371Z,11.54
2017-11-24T01:22:51.619Z,11.53
2017-11-24T01:25:19.875Z,11.38
2017-11-24T01:27:48.132Z,11.42
2017-11-24T01:30:16.378Z,11.38
2017-11-24T01:32:45.397Z,11.33
2017-11-24T01:35:13.648Z,11.25
2017-11-24T01:37:42.688Z,11.23
2017-11-24T01:40:10.930Z,11.30
2017-11-24T01:42:39.947Z,11.25
2017-11-24T01:45:08.206Z,11.28
2017-11-24T01:47:37.208Z,11.22
2017-11-24T01:50:05.464Z,11.30
2017-11-24T01:52:34.485Z,11.22
2017-11-24T01:55:02.740Z,11.22
2017-11-24T01:57:30.999Z,11.19
2017-11-24T02:00:00.018Z,11.27
2017-11-24T02:02:28.267Z,11.22
2017-11-24T02:04:56.511Z,11.32
2017-11-24T02:07:24.769Z,11.30
2017-11-24T02:09:53.014Z,11.24
2017-11-24T02:12:21.275Z,11.26
2017-11-24T02:14:50.319Z,11.27
2017-11-24T02:17:18.563Z,11.29
2017-11-24T02:19:46.819Z,11.23
2017-11-24T02:22:15.841Z,11.24
2017-11-24T02:24:44.089Z,11.19
2017-11-24T02:27:13.110Z,11.26
2017-11-24T02:29:41.367Z,11.15
2017-11-24T02:32:10.378Z,11.14
2017-11-24T02:34:38.631Z,11.11
2017-11-24T02:37:07.638Z,11.15
2017-11-24T02:39:35.881Z,11.08
2017-11-24T02:42:04.139Z,11.16
2017-11-24T02:44:32.425Z,11.19
2017-11-24T02:47:00.709Z,11.30
2017-11-24T02:49:28.990Z,11.40
2017-11-24T02:51:57.275Z,11.36
2017-11-24T02:54:26.327Z,11.39
2017-11-24T02:56:54.617Z,11.36
2017-11-24T02:59:22.905Z,11.46
2017-11-24T03:01:51.201Z,11.46
2017-11-24T03:04:20.214Z,11.43
2017-11-24T03:06:48.476Z,11.45
2017-11-24T03:09:16.730Z,11.38
2017-11-24T03:11:44.974Z,11.28
2017-11-24T03:14:13.229Z,11.18
2017-11-24T03:16:41.486Z,11.16
2017-11-24T03:19:09.727Z,11.13
2017-11-24T03:21:37.973Z,11.11
2017-11-24T03:24:06.223Z,11.03
2017-11-24T03:26:34.477Z,10.95
2017-11-24T03:29:03.499Z,11.02
2017-11-24T03:31:31.755Z,10.94
2017-11-24T03:34:00.010Z,10.89
2017-11-24T03:36:29.032Z,10.88
2017-11-24T03:38:57.282Z,10.95
2017-11-24T03:41:26.331Z,10.90
2017-11-24T03:43:54.589Z,10.92
2017-11-24T03:46:22.831Z,11.03
2017-11-24T03:48:51.856Z,11.11
2017-11-24T03:51:20.097Z,11.12
2017-11-24T03:53:49.115Z,11.23
2017-11-24T03:56:17.353Z,11.18
2017-11-24T03:58:46.378Z,11.25
2017-11-24T04:01:14.644Z,11.21
2017-11-24T04:03:43.648Z,11.21
2017-11-24T04:06:11.899Z,11.13
2017-11-24T04:08:40.908Z,11.10
2017-11-24T04:11:09.158Z,11.05
2017-11-24T04:13:38.170Z,10.97
2017-11-24T04:16:06.435Z,10.91
2017-11-24T04:18:35.455Z,10.84
2017-11-24T04:21:03.716Z,10.92
2017-11-24T04:23:32.723Z,10.90
2017-11-24T04:26:00.971Z,10.79
2017-11-24T04:28:29.984Z,10.92
2017-11-24T04:30:58.240Z,10.87
2017-11-24T04:33:27.251Z,10.82
2017-11-24T04:35:55.501Z,10.79
2017-11-24T04:38:24.522Z,10.84
2017-11-24T04:40:52.783Z,10.92
2017-11-24T04:43:21.803Z,10.75
2017-11-24T04:45:50.058Z,10.73
2017-11-24T04:48:18.312Z,10.74
2017-11-24T04:50:46.546Z,10.54
2017-11-24T04:53:14.799Z,10.55
2017-11-24T04:55:43.043Z,10.70
2017-11-24T04:58:12.067Z,10.72
2017-11-24T05:00:40.310Z,10.79
2017-11-24T05:03:09.328Z,10.84
2017-11-24T05:05:37.567Z,10.91
2017-11-24T05:08:05.823Z,11.02
2017-11-24T05:10:34.066Z,11.09
2017-11-24T05:13:02.314Z,11.06
2017-11-24T05:15:31.331Z,10.95
2017-11-24T05:17:59.594Z,10.93
2017-11-24T05:20:28.599Z,10.89
2017-11-24T05:22:56.857Z,10.83
2017-11-24T05:25:25.867Z,10.91
2017-11-24T05:27:54.112Z,10.92
2017-11-24T05:30:23.126Z,10.94
2017-11-24T05:32:51.373Z,10.92
2017-11-24T05:35:20.395Z,10.92
2017-11-24T05:37:48.649Z,10.99
2017-11-24T05:40:17.654Z,11.05
2017-11-24T05:42:46.682Z,11.05
2017-11-24T05:45:14.923Z,11.02
2017-11-24T05:47:43.174Z,11.05
2017-11-24T05:50:11.424Z,11.19
2017-11-24T05:52:39.718Z,11.13
2017-11-24T05:55:07.959Z,11.16
2017-11-24T05:57:36.211Z,11.17
2017-11-24T06:00:04.460Z,11.12
2017-11-24T06:02:33.481Z,11.10
2017-11-24T06:05:01.724Z,10.94
2017-11-24T06:07:30.740Z,10.95
2017-11-24T06:09:59.100Z,10.98
2017-11-24T06:12:27.339Z,10.94
2017-11-24T06:14:55.590Z,10.91
2017-11-24T06:17:23.850Z,10.85
2017-11-24T06:19:52.086Z,10.92
2017-11-24T06:22:20.336Z,10.88
2017-11-24T06:24:48.593Z,10.79
2017-11-24T06:27:16.838Z,10.73
2017-11-24T06:29:45.859Z,10.85
2017-11-24T06:32:14.107Z,10.84
2017-11-24T06:34:43.119Z,10.92
2017-11-24T06:37:11.366Z,10.96
2017-11-24T06:39:40.382Z,10.97
2017-11-24T06:42:08.626Z,10.92
2017-11-24T06:44:36.883Z,10.96
2017-11-24T06:47:05.133Z,10.97
2017-11-24T06:49:33.383Z,11.01
2017-11-24T06:52:01.631Z,11.01
2017-11-24T06:54:30.652Z,10.99
2017-11-24T06:56:58.899Z,10.95
2017-11-24T06:59:27.924Z,10.98
2017-11-24T07:01:56.171Z,11.00
2017-11-24T07:04:25.200Z,11.03
2017-11-24T07:06:53.439Z,11.12
2017-11-24T07:09:22.461Z,11.27
2017-11-24T07:11:50.717Z,11.29
2017-11-24T07:14:19.742Z,11.34
2017-11-24T07:16:47.997Z,11.40
2017-11-24T07:19:16.264Z,11.52
2017-11-24T07:21:45.301Z,11.59
2017-11-24T07:24:13.666Z,11.54
2017-11-24T07:26:41.901Z,11.56
2017-11-24T07:29:10.930Z,11.56
2017-11-24T07:31:39.188Z,11.59
2017-11-24T07:34:07.434Z,11.67
2017-11-24T07:36:36.460Z,11.68
2017-11-24T07:39:04.732Z,11.67
2017-11-24T07:41:32.987Z,11.75
2017-11-24T07:44:02.032Z,11.69
2017-11-24T07:46:30.274Z,11.69
2017-11-24T07:48:58.530Z,11.67
2017-11-24T07:51:27.550Z,11.68
2017-11-24T07:53:55.803Z,11.75
2017-11-24T07:56:24.820Z,11.82
2017-11-24T07:58:53.083Z,11.86
2017-11-24T08:01:22.111Z,11.93
2017-11-24T08:03:50.353Z,12.05
2017-11-24T08:06:19.366Z,12.11
2017-11-24T08:08:47.613Z,12.13
2017-11-24T08:11:16.631Z,12.11
2017-11-24T08:13:44.886Z,12.19
2017-11-24T08:16:13.904Z,12.23
2017-11-24T08:18:42.165Z,12.23
2017-11-24T08:21:11.165Z,12.13
2017-11-24T08:23:39.424Z,12.13
2017-11-24T08:26:08.435Z,12.29
2017-11-24T08:28:36.679Z,12.34
2017-11-24T08:31:05.706Z,12.41
2017-11-24T08:33:33.961Z,12.47
2017-11-24T08:36:02.983Z,12.54
2017-11-24T08:38:31.228Z,12.53
2017-11-24T08:41:00.247Z,12.53
2017-11-24T08:43:28.489Z,12.57
2017-11-24T08:45:57.523Z,12.61
2017-11-24T08:48:31.203Z,12.75
2017-11-24T08:50:59.455Z,12.78
2017-11-24T08:53:28.486Z,12.91
2017-11-24T08:55:56.724Z,13.14
2017-11-24T08:58:24.969Z,13.17
2017-11-24T09:00:53.223Z,13.14
2017-11-24T09:03:21.470Z,13.23
2017-11-24T09:05:49.718Z,13.32
2017-11-24T09:08:17.970Z,13.37
2017-11-24T09:10:46.216Z,13.43
2017-11-24T09:13:14.459Z,13.44
2017-11-24T09:15:43.468Z,13.55
2017-11-24T09:18:11.744Z,13.54
2017-11-24T09:20:39.983Z,13.48
2017-11-24T09:23:08.250Z,13.54
2017-11-24T09:25:36.494Z,13.55
2017-11-24T09:28:04.752Z,13.54
2017-11-24T09:30:32.999Z,13.52
2017-11-24T09:33:02.008Z,13.55
2017-11-24T09:35:30.270Z,13.52
2017-11-24T09:37:59.272Z,13.50
2017-11-24T09:40:28.323Z,13.55
2017-11-24T09:42:56.539Z,13.59
2017-11-24T09:45:25.564Z,13.55
2017-11-24T09:47:53.814Z,13.55
2017-11-24T09:50:22.831Z,13.56
2017-11-24T09:52:51.078Z,13.69
2017-11-24T09:55:20.101Z,13.71
2017-11-24T09:57:48.339Z,13.71
2017-11-24T10:00:17.356Z,13.96
2017-11-24T10:02:45.606Z,13.87
2017-11-24T10:05:14.617Z,13.87
2017-11-24T10:07:42.860Z,13.99
2017-11-24T10:10:11.109Z,14.16
2017-11-24T10:12:39.356Z,14.37
2017-11-24T10:15:07.604Z,14.50
2017-11-24T10:17:36.611Z,14.68
2017-11-24T10:20:04.856Z,14.64
2017-11-24T10:22:38.635Z,14.65
2017-11-24T10:25:06.875Z,14.73
2017-11-24T10:27:35.151Z,14.64
2017-11-24T10:30:03.400Z,14.63
2017-11-24T10:32:32.419Z,14.57
2017-11-24T10:35:00.660Z,14.59
2017-11-24T10:37:28.907Z,14.63
2017-11-24T10:39:57.151Z,14.79
2017-11-24T10:42:25.398Z,14.57
2017-11-24T10:44:54.402Z,14.42
2017-11-24T10:47:22.660Z,14.40
2017-11-24T10:49:50.905Z,14.46
2017-11-24T10:52:19.175Z,14.50
2017-11-24T10:54:47.418Z,14.56
2017-11-24T10:57:15.664Z,14.67
2017-11-24T10:59:44.685Z,14.56
2017-11-24T11:02:12.930Z,14.71
2017-11-24T11:04:41.955Z,14.69
2017-11-24T11:07:10.210Z,14.49
2017-11-24T11:09:38.464Z,14.45
2017-11-24T11:12:06.721Z,14.41
2017-11-24T11:14:34.973Z,14.35
2017-11-24T11:17:03.216Z,14.35
2017-11-24T11:19:31.472Z,13.28
2017-11-24T11:22:00.479Z,13.23
2017-11-24T11:24:28.726Z,13.26
2017-11-24T11:26:56.977Z,13.22
2017-11-24T11:29:25.226Z,13.11
2017-11-24T11:31:53.466Z,13.02
2017-11-24T11:34:22.495Z,12.98
2017-11-24T11:36:50.741Z,12.99
2017-11-24T11:39:19.764Z,13.01
2017-11-24T11:41:48.008Z,13.08
2017-11-24T11:44:17.025Z,13.11
2017-11-24T11:46:45.272Z,13.19
2017-11-24T11:49:14.291Z,13.31
2017-11-24T11:51:42.533Z,13.31
2017-11-24T11:54:11.550Z,13.45
2017-11-24T11:56:39.798Z,13.44
2017-11-24T11:59:08.051Z,13.48
2017-11-24T12:01:36.292Z,13.31
2017-11-24T12:04:04.543Z,13.33
2017-11-24T12:06:33.556Z,13.41
2017-11-24T12:09:01.807Z,13.52
2017-11-24T12:11:30.814Z,13.56
2017-11-24T12:13:59.067Z,13.60
2017-11-24T12:16:28.075Z,13.62
2017-11-24T12:18:57.094Z,13.59
2017-11-24T12:21:25.370Z,13.67
2017-11-24T12:23:53.614Z,13.59
2017-11-24T12:26:22.627Z,13.62
2017-11-24T12:28:50.874Z,13.60
2017-11-24T12:31:19.891Z,13.59
2017-11-24T12:33:48.144Z,13.55
2017-11-24T12:36:17.163Z,13.51
2017-11-24T12:38:45.415Z,13.58
2017-11-24T12:41:14.447Z,13.58
2017-11-24T12:43:42.677Z,13.59
2017-11-24T12:46:11.702Z,13.67
2017-11-24T12:48:39.939Z,13.72
2017-11-24T12:51:08.187Z,13.75
2017-11-24T12:53:37.216Z,13.75
2017-11-24T12:56:06.238Z,13.75
2017-11-24T12:58:34.483Z,13.77
2017-11-24T13:01:02.736Z,13.79
2017-11-24T13:03:30.993Z,13.78
2017-11-24T13:05:59.248Z,13.74
2017-11-24T13:08:27.484Z,13.75
2017-11-24T13:10:56.505Z,13.80
2017-11-24T13:13:24.749Z,13.70
2017-11-24T13:15:53.006Z,13.72
2017-11-24T13:18:21.276Z,13.70
2017-11-24T13:20:49.506Z,13.69
2017-11-24T13:23:17.748Z,13.69
2017-11-24T13:25:46.003Z,13.67
2017-11-24T13:28:15.011Z,13.65
2017-11-24T13:30:43.260Z,13.61
2017-11-24T13:33:11.507Z,13.57
2017-11-24T13:35:39.757Z,13.55
2017-11-24T13:38:08.767Z,13.52
2017-11-24T13:40:37.016Z,13.47
2017-11-24T13:43:06.038Z,13.45
2017-11-24T13:45:34.275Z,13.43
2017-11-24T13:48:02.540Z,13.40
2017-11-24T13:50:30.778Z,13.39
2017-11-24T13:52:59.035Z,13.38
2017-11-24T13:55:27.280Z,13.34
2017-11-24T13:57:55.554Z,13.32
2017-11-24T14:00:23.801Z,13.27
2017-11-24T14:02:52.069Z,13.26
2017-11-24T14:05:20.314Z,13.26
2017-11-24T14:07:48.571Z,13.24
2017-11-24T14:10:17.578Z,13.24
2017-11-24T14:12:45.836Z,13.23
2017-11-24T14:15:14.837Z,13.16
2017-11-24T14:17:43.955Z,13.14
2017-11-24T14:20:12.204Z,13.15
2017-11-24T14:22:41.230Z,13.14
2017-11-24T14:25:09.482Z,13.07
2017-11-24T14:27:38.486Z,13.04
2017-11-24T14:30:06.743Z,13.02
2017-11-24T14:32:35.753Z,12.99
2017-11-24T14:35:04.022Z,12.98
2017-11-24T14:37:33.032Z,12.97
2017-11-24T14:40:01.293Z,12.90
2017-11-24T14:42:29.535Z,12.89
2017-11-24T14:44:57.787Z,12.84
2017-11-24T14:47:26.037Z,12.90
2017-11-24T14:49:54.312Z,12.84
2017-11-24T14:52:22.561Z,12.80
2017-11-24T14:54:51.562Z,12.80
2017-11-24T14:57:19.814Z,12.76
2017-11-24T14:59:48.822Z,12.76
2017-11-24T15:02:17.844Z,12.74
2017-11-24T15:04:46.097Z,12.70
2017-11-24T15:07:14.360Z,12.68
2017-11-24T15:09:43.374Z,12.73
2017-11-24T15:12:11.634Z,12.70
2017-11-24T15:14:40.699Z,12.63
2017-11-24T15:17:08.973Z,12.67
2017-11-24T15:19:37.233Z,12.65
2017-11-24T15:22:05.529Z,12.60
2017-11-24T15:24:33.772Z,12.57
2017-11-24T15:27:02.048Z,12.59
2017-11-24T15:29:30.402Z,12.57
2017-11-24T15:31:58.677Z,12.60
2017-11-24T15:34:27.027Z,12.47
2017-11-24T15:36:56.039Z,12.46
2017-11-24T15:39:24.295Z,12.46
2017-11-24T15:41:52.540Z,12.48
2017-11-24T15:44:20.843Z,12.45
2017-11-24T15:46:49.900Z,12.39
2017-11-24T15:49:18.181Z,12.38
2017-11-24T15:51:46.443Z,12.34
2017-11-24T15:54:14.685Z,12.39
2017-11-24T15:56:42.936Z,12.32
2017-11-24T15:59:11.178Z,12.23
2017-11-24T16:01:39.449Z,12.17
2017-11-24T16:04:07.823Z,12.12
2017-11-24T16:06:36.889Z,12.14
2017-11-24T16:09:05.143Z,12.10
2017-11-24T16:11:34.175Z,12.06
2017-11-24T16:14:02.448Z,12.03
2017-11-24T16:16:30.698Z,11.93
2017-11-24T16:18:59.719Z,11.93
2017-11-24T16:21:27.984Z,11.92
2017-11-24T16:23:56.229Z,11.86
2017-11-24T16:26:24.498Z,11.85
2017-11-24T16:28:52.832Z,11.87
2017-11-24T16:31:21.132Z,11.93
2017-11-24T16:33:49.594Z,11.80
2017-11-24T16:36:17.997Z,11.80
2017-11-24T16:38:46.434Z,11.81
2017-11-24T16:41:15.756Z,11.85
2017-11-24T16:43:44.050Z,11.84
2017-11-24T16:46:12.298Z,11.82
2017-11-24T16:48:40.551Z,11.84
2017-11-24T16:51:08.805Z,11.85
2017-11-24T16:53:37.821Z,11.90
2017-11-24T16:56:06.943Z,11.85
2017-11-24T16:58:35.205Z,11.88
2017-11-24T17:01:03.459Z,11.84
2017-11-24T17:03:32.539Z,11.85
2017-11-24T17:06:01.556Z,11.84
2017-11-24T17:08:29.831Z,11.76
2017-11-24T17:10:58.079Z,11.73
2017-11-24T17:13:27.108Z,11.73
2017-11-24T17:15:55.365Z,11.75
2017-11-24T17:18:23.616Z,11.69
2017-11-24T17:20:51.875Z,11.74
2017-11-24T17:23:20.200Z,11.70
2017-11-24T17:26:11.997Z,11.77
2017-11-24T17:28:41.139Z,11.81
2017-11-24T17:31:09.505Z,11.80
2017-11-24T17:33:37.829Z,11.76
2017-11-24T17:36:06.186Z,11.82
2017-11-24T17:38:39.897Z,11.79
2017-11-24T17:41:08.232Z,11.78
2017-11-24T17:43:36.475Z,11.80
2017-11-24T17:46:04.796Z,11.85
2017-11-24T17:48:33.033Z,11.89
2017-11-24T17:51:02.053Z,11.91
2017-11-24T17:53:30.313Z,11.90
2017-11-24T17:55:59.322Z,11.91
2017-11-24T17:58:27.583Z,11.88
2017-11-24T18:00:56.601Z,11.86
2017-11-24T18:03:24.862Z,11.86
2017-11-24T18:05:53.867Z,11.86
2017-11-24T18:08:22.131Z,11.86
2017-11-24T18:10:51.151Z,11.90
2017-11-24T18:13:19.423Z,11.89
2017-11-24T18:15:47.672Z,11.83
2017-11-24T18:18:15.924Z,11.85
2017-11-24T18:20:44.181Z,11.84
2017-11-24T18:23:12.430Z,11.83
2017-11-24T18:25:40.686Z,11.80
2017-11-24T18:28:08.923Z,11.80
2017-11-24T18:30:37.181Z,11.79
2017-11-24T18:33:05.450Z,11.83
2017-11-24T18:35:33.703Z,11.78
2017-11-24T18:38:01.965Z,11.71
2017-11-24T18:40:30.248Z,11.71
2017-11-24T18:42:58.496Z,11.78
2017-11-24T18:45:28.052Z,12.45
2017-11-24T18:47:56.304Z,12.24
2017-11-24T18:50:24.580Z,12.59
2017-11-24T18:52:52.827Z,12.48
2017-11-24T18:55:21.871Z,11.83
2017-11-24T18:57:50.137Z,12.63
2017-11-24T19:00:18.375Z,12.29
2017-11-24T19:02:47.016Z,12.12
2017-11-24T19:05:15.273Z,12.49
2017-11-24T19:07:43.527Z,12.10
2017-11-24T19:10:11.780Z,12.28
2017-11-24T19:12:40.809Z,13.09
2017-11-24T19:15:09.067Z,12.74
2017-11-24T19:17:37.426Z,12.90
2017-11-24T19:20:06.452Z,11.97
2017-11-24T19:22:34.720Z,11.91
2017-11-24T19:25:02.993Z,11.89
2017-11-24T19:27:31.256Z,11.80
2017-11-24T19:30:00.308Z,11.67
2017-11-24T19:32:28.547Z,11.58
2017-11-24T19:34:56.803Z,11.59
2017-11-24T19:37:25.055Z,11.57
2017-11-24T19:39:55.040Z,11.53
2017-11-24T19:42:23.309Z,11.52
2017-11-24T19:44:51.556Z,11.46
2017-11-24T19:47:19.808Z,11.42
2017-11-24T19:49:48.829Z,11.46
2017-11-24T19:52:17.070Z,11.37
2017-11-24T19:54:46.094Z,11.36
2017-11-24T19:57:14.343Z,11.30
2017-11-24T19:59:43.365Z,11.31
2017-11-24T20:02:11.657Z,11.26
2017-11-24T20:04:39.898Z,11.25
2017-11-24T20:07:08.147Z,11.19
2017-11-24T20:09:36.409Z,11.18
2017-11-24T20:12:04.692Z,11.20
2017-11-24T20:14:32.954Z,11.15
2017-11-24T20:17:01.197Z,11.19
2017-11-24T20:19:29.453Z,11.05
2017-11-24T20:21:58.465Z,11.00
2017-11-24T20:24:26.741Z,10.79
2017-11-24T20:26:55.009Z,10.74
2017-11-24T20:29:23.264Z,10.70
2017-11-24T20:31:52.289Z,10.64
2017-11-24T20:34:20.540Z,10.70
2017-11-24T20:36:49.561Z,10.58
2017-11-24T20:39:17.819Z,10.57
2017-11-24T20:41:46.075Z,10.66
2017-11-24T20:44:15.088Z,10.59
2017-11-24T20:46:43.383Z,10.55
2017-11-24T20:49:11.693Z,10.62
2017-11-24T20:51:40.787Z,10.69
2017-11-24T20:54:09.031Z,10.68
2017-11-24T20:56:37.283Z,10.68
2017-11-24T20:59:06.297Z,10.63
2017-11-24T21:01:34.592Z,10.60
2017-11-24T21:04:02.855Z,10.65
2017-11-24T21:06:31.168Z,10.62
2017-11-24T21:08:59.412Z,10.61
2017-11-24T21:11:27.714Z,10.56
2017-11-24T21:13:55.959Z,10.62
2017-11-24T21:16:24.263Z,10.55
2017-11-24T21:18:52.517Z,10.61
2017-11-24T21:21:20.816Z,10.62
2017-11-24T21:23:49.057Z,10.69
2017-11-24T21:26:17.354Z,10.68
2017-11-24T21:28:45.612Z,10.67
2017-11-24T21:31:13.863Z,10.64
2017-11-24T21:33:42.121Z,10.65
2017-11-24T21:36:11.128Z,10.61
2017-11-24T21:38:40.193Z,10.67
2017-11-24T21:41:08.434Z,10.59
2017-11-24T21:43:36.730Z,10.68
2017-11-24T21:46:05.008Z,10.68
2017-11-24T21:48:33.326Z,10.69
2017-11-24T21:51:02.370Z,10.69
2017-11-24T21:53:30.659Z,10.68
2017-11-24T21:55:58.915Z,10.71
2017-11-24T21:58:27.150Z,10.72
2017-11-24T22:00:55.441Z,10.73
2017-11-24T22:03:23.722Z,10.69
2017-11-24T22:05:52.021Z,10.64
2017-11-24T22:08:20.307Z,10.65
2017-11-24T22:10:48.563Z,10.60
2017-11-24T22:13:16.811Z,10.62
2017-11-24T22:15:45.111Z,10.61
2017-11-24T22:18:13.366Z,10.61
2017-11-24T22:20:41.632Z,10.61
2017-11-24T22:23:10.644Z,10.59
2017-11-24T22:25:38.901Z,10.60
2017-11-24T22:28:07.956Z,10.62
2017-11-24T22:30:36.207Z,10.55
2017-11-24T22:33:04.481Z,10.54
2017-11-24T22:35:32.752Z,10.38
2017-11-24T22:38:01.040Z,10.33
2017-11-24T22:40:29.274Z,10.26
2017-11-24T22:42:57.527Z,10.23
2017-11-24T22:45:25.774Z,10.25
2017-11-24T22:47:54.076Z,10.21
2017-11-24T22:50:22.316Z,10.28
2017-11-24T22:52:50.578Z,10.32
2017-11-24T22:55:18.819Z,10.37
2017-11-24T22:57:47.850Z,10.40
2017-11-24T23:00:16.082Z,10.44
2017-11-24T23:02:45.102Z,10.43
2017-11-24T23:05:13.343Z,10.39
2017-11-24T23:07:42.376Z,10.37
2017-11-24T23:10:10.659Z,10.34
2017-11-24T23:12:38.907Z,10.34
2017-11-24T23:15:07.151Z,10.32
2017-11-24T23:17:35.411Z,10.28
2017-11-24T23:20:03.649Z,10.24
2017-11-24T23:22:31.888Z,10.20
2017-11-24T23:25:00.900Z,10.20
2017-11-24T23:27:29.153Z,10.17
2017-11-24T23:29:57.388Z,10.14
2017-11-24T23:32:25.634Z,10.15
2017-11-24T23:34:54.751Z,10.17
2017-11-24T23:37:23.007Z,10.13
2017-11-24T23:39:51.348Z,10.11
2017-11-24T23:42:20.556Z,10.05
2017-11-24T23:44:49.640Z,10.09
2017-11-24T23:47:19.880Z,10.05
2017-11-24T23:49:48.985Z,10.06
2017-11-24T23:52:17.243Z,10.04
2017-11-24T23:54:46.247Z,10.06
2017-11-24T23:57:15.274Z,10.06
2017-11-24T23:59:43.514Z,10.07
